LGW weather

London Gatwick Airport
London, England, United Kingdom

Public forecast

Using degrees Celsius for public forecast. Weather courtesy of forecast.io.

Current aviation weather report (METAR) for London Gatwick Airport

Retrieved 2020/01/23 10:20 UTC (14 minutes ago):

EGKK 231020Z 06006KT 9999 BKN012 07/05 Q1033

Aviation forecast (TAF) for London Gatwick Airport

Retrieved 2020/01/23 06:00 UTC (5 hours ago):

TAF EGKK 230504Z 2306/2412 05004KT 8000 BKN014 PROB30 TEMPO 2306/2312 3000 -DZ BR BKN005 BECMG 2312/2315 9999 SCT012 BKN018 PROB40 TEMPO 2315/2321 BKN012 BECMG 2317/2320 6000 PROB40 TEMPO 2321/2412 4000 BR BKN008